sensor_id;sensor_type;location;lat;lon;timestamp;pressure;altitude;pressure_sealevel;temperature;humidity
55486;BME280;49383;-25.924;28.194;2023-02-28T00:02:07;85337.13;;;22.80;32.79
55486;BME280;49383;-25.924;28.194;2023-02-28T00:04:32;85328.41;;;22.33;33.42
55486;BME280;49383;-25.924;28.194;2023-02-28T00:06:57;85323.03;;;22.33;34.34
55486;BME280;49383;-25.924;28.194;2023-02-28T00:09:22;85318.51;;;22.27;35.55
55486;BME280;49383;-25.924;28.194;2023-02-28T00:11:47;85314.94;;;22.52;34.69
55486;BME280;49383;-25.924;28.194;2023-02-28T00:14:12;85310.82;;;22.61;33.82
55486;BME280;49383;-25.924;28.194;2023-02-28T00:16:37;85305.04;;;22.32;35.23
55486;BME280;49383;-25.924;28.194;2023-02-28T00:19:02;85304.53;;;22.40;36.27
55486;BME280;49383;-25.924;28.194;2023-02-28T00:21:27;85309.40;;;22.36;34.71
55486;BME280;49383;-25.924;28.194;2023-02-28T00:23:52;85315.29;;;22.33;34.52
55486;BME280;49383;-25.924;28.194;2023-02-28T00:26:18;85310.31;;;22.50;35.67
55486;BME280;49383;-25.924;28.194;2023-02-28T00:28:43;85307.67;;;22.29;36.25
55486;BME280;49383;-25.924;28.194;2023-02-28T00:31:08;85306.29;;;22.46;35.08
55486;BME280;49383;-25.924;28.194;2023-02-28T00:33:33;85308.51;;;22.43;34.82
55486;BME280;49383;-25.924;28.194;2023-02-28T00:36:03;85307.14;;;22.28;36.11
55486;BME280;49383;-25.924;28.194;2023-02-28T00:38:23;85303.71;;;22.52;36.33
55486;BME280;49383;-25.924;28.194;2023-02-28T00:40:48;85300.54;;;22.77;34.98
55486;BME280;49383;-25.924;28.194;2023-02-28T00:43:13;85301.04;;;22.76;34.53
55486;BME280;49383;-25.924;28.194;2023-02-28T00:45:38;85297.14;;;22.52;34.43
55486;BME280;49383;-25.924;28.194;2023-02-28T00:48:03;85292.79;;;22.45;34.19
55486;BME280;49383;-25.924;28.194;2023-02-28T00:50:28;85289.12;;;22.28;34.05
55486;BME280;49383;-25.924;28.194;2023-02-28T00:52:53;85286.00;;;22.44;34.01
55486;BME280;49383;-25.924;28.194;2023-02-28T00:55:18;85280.71;;;22.51;33.72
55486;BME280;49383;-25.924;28.194;2023-02-28T00:57:43;85274.68;;;22.42;33.74
55486;BME280;49383;-25.924;28.194;2023-02-28T01:00:10;85274.17;;;22.46;33.63
55486;BME280;49383;-25.924;28.194;2023-02-28T01:02:33;85280.30;;;22.49;33.57
55486;BME280;49383;-25.924;28.194;2023-02-28T01:04:58;85287.98;;;22.51;33.42
55486;BME280;49383;-25.924;28.194;2023-02-28T01:07:24;85291.87;;;22.47;33.38
55486;BME280;49383;-25.924;28.194;2023-02-28T01:09:49;85288.97;;;22.46;33.26
55486;BME280;49383;-25.924;28.194;2023-02-28T01:12:14;85290.57;;;22.45;33.18
55486;BME280;49383;-25.924;28.194;2023-02-28T01:14:39;85290.05;;;22.90;33.36
55486;BME280;49383;-25.924;28.194;2023-02-28T01:17:05;85287.29;;;22.69;33.34
55486;BME280;49383;-25.924;28.194;2023-02-28T01:19:29;85287.36;;;22.41;33.26
55486;BME280;49383;-25.924;28.194;2023-02-28T01:21:54;85284.66;;;22.44;33.35
55486;BME280;49383;-25.924;28.194;2023-02-28T01:24:19;85283.12;;;22.14;33.26
55486;BME280;49383;-25.924;28.194;2023-02-28T01:26:44;85279.83;;;22.38;33.08
55486;BME280;49383;-25.924;28.194;2023-02-28T01:29:09;85280.20;;;22.40;33.08
55486;BME280;49383;-25.924;28.194;2023-02-28T01:31:34;85278.67;;;22.37;32.99
55486;BME280;49383;-25.924;28.194;2023-02-28T01:33:59;85282.01;;;22.58;33.00
55486;BME280;49383;-25.924;28.194;2023-02-28T01:36:25;85281.01;;;22.40;32.99
55486;BME280;49383;-25.924;28.194;2023-02-28T01:38:50;85278.41;;;22.42;32.98
55486;BME280;49383;-25.924;28.194;2023-02-28T01:41:18;85275.79;;;22.42;32.90
55486;BME280;49383;-25.924;28.194;2023-02-28T01:46:04;85268.43;;;22.45;33.00
55486;BME280;49383;-25.924;28.194;2023-02-28T01:48:32;85271.22;;;22.45;32.80
55486;BME280;49383;-25.924;28.194;2023-02-28T01:50:56;85270.58;;;22.40;32.84
55486;BME280;49383;-25.924;28.194;2023-02-28T01:53:24;85269.29;;;22.67;33.05
55486;BME280;49383;-25.924;28.194;2023-02-28T01:55:48;85266.62;;;22.66;32.96
55486;BME280;49383;-25.924;28.194;2023-02-28T01:58:10;85261.26;;;22.38;32.95
55486;BME280;49383;-25.924;28.194;2023-02-28T02:00:35;85255.83;;;22.42;32.86
55486;BME280;49383;-25.924;28.194;2023-02-28T02:03:05;85254.69;;;22.39;32.86
55486;BME280;49383;-25.924;28.194;2023-02-28T02:05:27;85256.72;;;22.38;32.94
55486;BME280;49383;-25.924;28.194;2023-02-28T02:07:53;85254.28;;;22.37;32.84
55486;BME280;49383;-25.924;28.194;2023-02-28T02:10:17;85249.62;;;22.81;32.84
55486;BME280;49383;-25.924;28.194;2023-02-28T02:12:58;85243.37;;;22.33;32.81
55486;BME280;49383;-25.924;28.194;2023-02-28T02:15:11;85238.35;;;22.61;32.81
55486;BME280;49383;-25.924;28.194;2023-02-28T02:17:34;85235.77;;;22.35;32.72
55486;BME280;49383;-25.924;28.194;2023-02-28T02:27:17;85228.65;;;22.66;35.39
55486;BME280;49383;-25.924;28.194;2023-02-28T02:32:09;85233.94;;;22.38;34.62
55486;BME280;49383;-25.924;28.194;2023-02-28T02:36:55;85231.96;;;22.45;36.09
55486;BME280;49383;-25.924;28.194;2023-02-28T02:39:22;85227.17;;;22.22;36.59
55486;BME280;49383;-25.924;28.194;2023-02-28T02:41:46;85221.22;;;22.42;35.24
55486;BME280;49383;-25.924;28.194;2023-02-28T02:44:11;85216.28;;;22.31;35.65
55486;BME280;49383;-25.924;28.194;2023-02-28T02:46:34;85216.37;;;22.39;36.92
55486;BME280;49383;-25.924;28.194;2023-02-28T02:48:58;85215.26;;;22.34;37.14
55486;BME280;49383;-25.924;28.194;2023-02-28T02:51:23;85210.27;;;22.21;35.83
55486;BME280;49383;-25.924;28.194;2023-02-28T02:53:49;85207.74;;;22.22;35.90
55486;BME280;49383;-25.924;28.194;2023-02-28T02:56:12;85205.09;;;22.06;37.23
55486;BME280;49383;-25.924;28.194;2023-02-28T02:58:40;85203.39;;;22.22;37.68
55486;BME280;49383;-25.924;28.194;2023-02-28T03:01:03;85204.81;;;22.35;36.21
55486;BME280;49383;-25.924;28.194;2023-02-28T03:03:27;85198.81;;;22.04;36.62
55486;BME280;49383;-25.924;28.194;2023-02-28T03:05:52;85197.54;;;22.17;37.76
55486;BME280;49383;-25.924;28.194;2023-02-28T03:08:17;85197.18;;;22.17;38.09
55486;BME280;49383;-25.924;28.194;2023-02-28T03:10:43;85189.50;;;22.35;36.52
55486;BME280;49383;-25.924;28.194;2023-02-28T03:13:23;85191.41;;;22.14;36.78
55486;BME280;49383;-25.924;28.194;2023-02-28T03:15:37;85189.24;;;22.06;37.78
55486;BME280;49383;-25.924;28.194;2023-02-28T03:18:03;85189.97;;;22.02;38.16
55486;BME280;49383;-25.924;28.194;2023-02-28T03:20:33;85184.87;;;22.30;36.38
55486;BME280;49383;-25.924;28.194;2023-02-28T03:22:53;85187.87;;;22.22;37.01
55486;BME280;49383;-25.924;28.194;2023-02-28T03:25:18;85189.38;;;22.20;37.96
55486;BME280;49383;-25.924;28.194;2023-02-28T03:27:41;85192.01;;;22.15;37.87
55486;BME280;49383;-25.924;28.194;2023-02-28T03:30:06;85195.52;;;22.43;36.42
55486;BME280;49383;-25.924;28.194;2023-02-28T03:32:32;85195.73;;;22.41;36.97
55486;BME280;49383;-25.924;28.194;2023-02-28T03:34:56;85199.50;;;22.35;37.85
55486;BME280;49383;-25.924;28.194;2023-02-28T03:37:20;85201.01;;;22.42;37.19
55486;BME280;49383;-25.924;28.194;2023-02-28T03:39:45;85202.52;;;22.54;36.34
55486;BME280;49383;-25.924;28.194;2023-02-28T03:42:11;85203.69;;;22.54;37.19
55486;BME280;49383;-25.924;28.194;2023-02-28T03:44:36;85208.71;;;22.55;38.26
55486;BME280;49383;-25.924;28.194;2023-02-28T03:47:02;85213.99;;;22.33;37.21
55486;BME280;49383;-25.924;28.194;2023-02-28T03:49:26;85215.91;;;22.35;36.74
55486;BME280;49383;-25.924;28.194;2023-02-28T03:51:50;85215.25;;;22.26;37.77
55486;BME280;49383;-25.924;28.194;2023-02-28T03:54:19;85215.23;;;22.22;38.38
55486;BME280;49383;-25.924;28.194;2023-02-28T03:56:42;85210.58;;;22.35;37.08
55486;BME280;49383;-25.924;28.194;2023-02-28T03:59:09;85216.90;;;22.89;36.40
55486;BME280;49383;-25.924;28.194;2023-02-28T04:01:33;85222.09;;;22.13;37.54
55486;BME280;49383;-25.924;28.194;2023-02-28T04:03:55;85216.45;;;22.32;38.40
55486;BME280;49383;-25.924;28.194;2023-02-28T04:06:22;85204.77;;;22.17;37.56
55486;BME280;49383;-25.924;28.194;2023-02-28T04:08:45;85200.27;;;22.22;36.59
55486;BME280;49383;-25.924;28.194;2023-02-28T04:11:18;85197.34;;;22.20;37.39
55486;BME280;49383;-25.924;28.194;2023-02-28T04:13:35;85194.38;;;22.30;38.56
55486;BME280;49383;-25.924;28.194;2023-02-28T04:16:06;85193.30;;;22.26;37.16
55486;BME280;49383;-25.924;28.194;2023-02-28T04:18:26;85191.67;;;22.28;36.43
55486;BME280;49383;-25.924;28.194;2023-02-28T04:20:51;85193.87;;;22.45;37.43
55486;BME280;49383;-25.924;28.194;2023-02-28T04:23:16;85194.52;;;22.19;38.52
55486;BME280;49383;-25.924;28.194;2023-02-28T04:25:41;85189.64;;;22.43;36.99
55486;BME280;49383;-25.924;28.194;2023-02-28T04:28:06;85184.88;;;22.18;36.77
55486;BME280;49383;-25.924;28.194;2023-02-28T04:30:32;85183.09;;;22.18;37.63
55486;BME280;49383;-25.924;28.194;2023-02-28T04:32:57;85180.48;;;22.30;38.39
55486;BME280;49383;-25.924;28.194;2023-02-28T04:35:22;85177.77;;;22.26;36.89
55486;BME280;49383;-25.924;28.194;2023-02-28T04:37:47;85179.15;;;22.22;36.83
55486;BME280;49383;-25.924;28.194;2023-02-28T04:40:12;85172.88;;;22.53;38.06
55486;BME280;49383;-25.924;28.194;2023-02-28T04:42:37;85166.84;;;22.02;38.35
55486;BME280;49383;-25.924;28.194;2023-02-28T04:45:03;85167.94;;;22.20;36.88
55486;BME280;49383;-25.924;28.194;2023-02-28T04:47:27;85171.86;;;22.56;36.30
55486;BME280;49383;-25.924;28.194;2023-02-28T04:49:53;85176.62;;;22.27;35.97
55486;BME280;49383;-25.924;28.194;2023-02-28T04:52:19;85178.59;;;22.27;35.75
55486;BME280;49383;-25.924;28.194;2023-02-28T04:54:44;85182.98;;;22.45;35.63
55486;BME280;49383;-25.924;28.194;2023-02-28T04:57:09;85180.60;;;22.56;35.23
55486;BME280;49383;-25.924;28.194;2023-02-28T04:59:34;85177.29;;;22.27;35.00
55486;BME280;49383;-25.924;28.194;2023-02-28T05:01:59;85176.76;;;22.45;35.15
55486;BME280;49383;-25.924;28.194;2023-02-28T05:04:24;85180.57;;;22.16;34.89
55486;BME280;49383;-25.924;28.194;2023-02-28T05:06:49;85181.50;;;22.19;34.71
55486;BME280;49383;-25.924;28.194;2023-02-28T05:09:14;85185.35;;;22.29;34.53
55486;BME280;49383;-25.924;28.194;2023-02-28T05:11:40;85183.31;;;22.29;34.38
55486;BME280;49383;-25.924;28.194;2023-02-28T05:14:09;85187.33;;;22.26;34.46
55486;BME280;49383;-25.924;28.194;2023-02-28T05:16:30;85184.00;;;22.31;34.66
55486;BME280;49383;-25.924;28.194;2023-02-28T05:18:55;85189.47;;;22.71;34.41
55486;BME280;49383;-25.924;28.194;2023-02-28T05:21:26;85189.91;;;22.23;34.16
55486;BME280;49383;-25.924;28.194;2023-02-28T05:23:45;85187.20;;;22.10;34.02
55486;BME280;49383;-25.924;28.194;2023-02-28T05:26:10;85188.39;;;22.33;34.01
55486;BME280;49383;-25.924;28.194;2023-02-28T05:28:35;85188.22;;;22.47;33.35
55486;BME280;49383;-25.924;28.194;2023-02-28T05:31:01;85189.75;;;22.53;32.92
55486;BME280;49383;-25.924;28.194;2023-02-28T05:33:25;85188.57;;;22.56;32.89
55486;BME280;49383;-25.924;28.194;2023-02-28T05:35:50;85187.16;;;22.51;32.56
55486;BME280;49383;-25.924;28.194;2023-02-28T05:38:16;85189.33;;;22.65;31.93
55486;BME280;49383;-25.924;28.194;2023-02-28T05:40:41;85191.90;;;22.76;31.25
55486;BME280;49383;-25.924;28.194;2023-02-28T05:43:07;85194.90;;;22.92;31.10
55486;BME280;49383;-25.924;28.194;2023-02-28T05:45:31;85199.97;;;22.83;30.93
55486;BME280;49383;-25.924;28.194;2023-02-28T05:47:57;85204.93;;;22.54;30.95
55486;BME280;49383;-25.924;28.194;2023-02-28T05:50:22;85206.63;;;22.88;30.53
55486;BME280;49383;-25.924;28.194;2023-02-28T05:52:50;85205.30;;;22.65;30.58
55486;BME280;49383;-25.924;28.194;2023-02-28T05:55:13;85206.33;;;22.74;30.70
55486;BME280;49383;-25.924;28.194;2023-02-28T05:57:38;85210.06;;;22.86;29.93
55486;BME280;49383;-25.924;28.194;2023-02-28T06:00:05;85206.77;;;22.91;29.50
55486;BME280;49383;-25.924;28.194;2023-02-28T06:02:29;85204.69;;;22.69;29.26
55486;BME280;49383;-25.924;28.194;2023-02-28T06:04:54;85207.74;;;22.73;29.50
55486;BME280;49383;-25.924;28.194;2023-02-28T06:07:19;85209.16;;;23.01;28.59
55486;BME280;49383;-25.924;28.194;2023-02-28T06:14:35;85214.53;;;23.14;28.76
55486;BME280;49383;-25.924;28.194;2023-02-28T06:17:00;85217.62;;;23.20;29.24
55486;BME280;49383;-25.924;28.194;2023-02-28T06:19:25;85217.30;;;22.94;29.25
55486;BME280;49383;-25.924;28.194;2023-02-28T06:21:50;85222.62;;;23.01;31.31
55486;BME280;49383;-25.924;28.194;2023-02-28T06:24:14;85224.16;;;23.03;29.28
55486;BME280;49383;-25.924;28.194;2023-02-28T06:26:39;85227.51;;;23.10;29.83
55486;BME280;49383;-25.924;28.194;2023-02-28T06:29:04;85231.95;;;23.11;30.23
55486;BME280;49383;-25.924;28.194;2023-02-28T06:31:29;85230.93;;;23.16;30.60
55486;BME280;49383;-25.924;28.194;2023-02-28T06:33:55;85229.49;;;23.25;29.92
55486;BME280;49383;-25.924;28.194;2023-02-28T06:36:20;85228.89;;;23.24;31.06
55486;BME280;49383;-25.924;28.194;2023-02-28T06:38:46;85228.07;;;23.07;30.89
55486;BME280;49383;-25.924;28.194;2023-02-28T06:41:11;85227.94;;;23.33;30.79
55486;BME280;49383;-25.924;28.194;2023-02-28T06:43:39;85229.14;;;23.35;30.54
55486;BME280;49383;-25.924;28.194;2023-02-28T06:46:05;85228.78;;;23.43;30.63
55486;BME280;49383;-25.924;28.194;2023-02-28T06:48:27;85233.83;;;23.40;30.31
55486;BME280;49383;-25.924;28.194;2023-02-28T06:50:51;85231.66;;;23.46;31.10
55486;BME280;49383;-25.924;28.194;2023-02-28T06:53:16;85223.12;;;23.31;30.37
55486;BME280;49383;-25.924;28.194;2023-02-28T06:55:41;85218.72;;;23.46;29.93
55486;BME280;49383;-25.924;28.194;2023-02-28T06:58:06;85228.00;;;23.51;30.08
55486;BME280;49383;-25.924;28.194;2023-02-28T07:00:31;85218.75;;;23.31;30.26
55486;BME280;49383;-25.924;28.194;2023-02-28T07:02:57;85218.35;;;23.62;29.09
55486;BME280;49383;-25.924;28.194;2023-02-28T07:05:22;85219.13;;;23.40;29.43
55486;BME280;49383;-25.924;28.194;2023-02-28T07:07:47;85221.76;;;23.67;29.59
55486;BME280;49383;-25.924;28.194;2023-02-28T07:10:12;85219.62;;;23.74;28.23
55486;BME280;49383;-25.924;28.194;2023-02-28T07:12:37;85221.71;;;23.29;29.06
55486;BME280;49383;-25.924;28.194;2023-02-28T07:15:03;85219.50;;;23.74;28.39
55486;BME280;49383;-25.924;28.194;2023-02-28T07:17:29;85221.57;;;23.51;28.90
55486;BME280;49383;-25.924;28.194;2023-02-28T07:19:54;85210.82;;;23.77;28.31
55486;BME280;49383;-25.924;28.194;2023-02-28T07:22:19;85202.25;;;23.76;27.93
55486;BME280;49383;-25.924;28.194;2023-02-28T07:24:44;85197.90;;;23.80;28.65
55486;BME280;49383;-25.924;28.194;2023-02-28T07:27:09;85194.41;;;23.59;27.28
55486;BME280;49383;-25.924;28.194;2023-02-28T07:29:34;85194.00;;;23.63;27.68
55486;BME280;49383;-25.924;28.194;2023-02-28T07:31:59;85196.98;;;23.82;27.14
55486;BME280;49383;-25.924;28.194;2023-02-28T07:34:24;85192.19;;;23.58;28.22
55486;BME280;49383;-25.924;28.194;2023-02-28T07:36:49;85189.73;;;23.91;27.95
55486;BME280;49383;-25.924;28.194;2023-02-28T07:39:15;85190.92;;;23.69;29.61
55486;BME280;49383;-25.924;28.194;2023-02-28T07:41:41;85190.80;;;23.49;27.97
55486;BME280;49383;-25.924;28.194;2023-02-28T07:44:06;85188.29;;;23.98;27.85
55486;BME280;49383;-25.924;28.194;2023-02-28T07:46:32;85191.45;;;23.78;28.27
55486;BME280;49383;-25.924;28.194;2023-02-28T07:48:58;85187.14;;;23.60;27.61
55486;BME280;49383;-25.924;28.194;2023-02-28T07:51:24;85193.25;;;23.80;28.29
55486;BME280;49383;-25.924;28.194;2023-02-28T07:53:50;85189.68;;;23.83;29.17
55486;BME280;49383;-25.924;28.194;2023-02-28T07:56:16;85182.25;;;23.89;28.04
55486;BME280;49383;-25.924;28.194;2023-02-28T07:58:42;85182.57;;;23.69;27.50
55486;BME280;49383;-25.924;28.194;2023-02-28T08:01:09;85174.56;;;24.10;27.76
55486;BME280;49383;-25.924;28.194;2023-02-28T08:03:34;85174.80;;;23.87;27.38
55486;BME280;49383;-25.924;28.194;2023-02-28T08:05:59;85171.05;;;23.92;27.93
55486;BME280;49383;-25.924;28.194;2023-02-28T08:08:25;85168.78;;;23.76;27.95
55486;BME280;49383;-25.924;28.194;2023-02-28T08:10:51;85166.81;;;23.92;29.88
55486;BME280;49383;-25.924;28.194;2023-02-28T08:13:17;85166.70;;;24.00;30.07
55486;BME280;49383;-25.924;28.194;2023-02-28T08:15:43;85166.59;;;23.99;29.94
55486;BME280;49383;-25.924;28.194;2023-02-28T08:18:09;85163.69;;;24.44;29.14
55486;BME280;49383;-25.924;28.194;2023-02-28T08:20:34;85168.00;;;24.24;29.44
55486;BME280;49383;-25.924;28.194;2023-02-28T08:23:00;85162.30;;;24.22;28.65
55486;BME280;49383;-25.924;28.194;2023-02-28T08:25:26;85168.12;;;23.96;29.32
55486;BME280;49383;-25.924;28.194;2023-02-28T08:27:52;85162.24;;;23.98;28.31
55486;BME280;49383;-25.924;28.194;2023-02-28T08:30:17;85163.16;;;23.95;28.57
55486;BME280;49383;-25.924;28.194;2023-02-28T08:32:43;85157.24;;;24.00;28.54
55486;BME280;49383;-25.924;28.194;2023-02-28T08:35:10;85158.57;;;24.21;29.06
55486;BME280;49383;-25.924;28.194;2023-02-28T08:37:34;85161.81;;;23.97;27.62
55486;BME280;49383;-25.924;28.194;2023-02-28T08:40:00;85151.25;;;24.00;27.26
55486;BME280;49383;-25.924;28.194;2023-02-28T08:42:26;85155.91;;;23.97;27.06
55486;BME280;49383;-25.924;28.194;2023-02-28T08:44:52;85160.92;;;23.94;27.31
55486;BME280;49383;-25.924;28.194;2023-02-28T08:47:18;85156.17;;;23.96;26.64
55486;BME280;49383;-25.924;28.194;2023-02-28T08:49:44;85157.61;;;23.92;26.88
55486;BME280;49383;-25.924;28.194;2023-02-28T08:52:10;85151.42;;;23.90;28.15
55486;BME280;49383;-25.924;28.194;2023-02-28T08:54:36;85157.89;;;24.34;27.01
55486;BME280;49383;-25.924;28.194;2023-02-28T08:57:03;85153.09;;;24.11;28.07
55486;BME280;49383;-25.924;28.194;2023-02-28T08:59:27;85143.62;;;24.15;26.94
55486;BME280;49383;-25.924;28.194;2023-02-28T09:01:53;85139.80;;;23.94;26.39
55486;BME280;49383;-25.924;28.194;2023-02-28T09:04:19;85138.28;;;23.90;27.00
55486;BME280;49383;-25.924;28.194;2023-02-28T09:06:45;85142.50;;;24.11;26.47
55486;BME280;49383;-25.924;28.194;2023-02-28T09:09:11;85139.88;;;24.31;26.47
55486;BME280;49383;-25.924;28.194;2023-02-28T09:11:37;85137.36;;;23.90;26.28
55486;BME280;49383;-25.924;28.194;2023-02-28T09:14:03;85135.65;;;24.10;26.26
55486;BME280;49383;-25.924;28.194;2023-02-28T09:16:28;85131.63;;;24.06;25.95
55486;BME280;49383;-25.924;28.194;2023-02-28T09:18:54;85128.82;;;24.08;25.88
55486;BME280;49383;-25.924;28.194;2023-02-28T09:21:20;85125.61;;;23.93;26.03
55486;BME280;49383;-25.924;28.194;2023-02-28T09:23:48;85120.35;;;24.23;26.19
55486;BME280;49383;-25.924;28.194;2023-02-28T09:26:15;85117.79;;;23.98;26.43
55486;BME280;49383;-25.924;28.194;2023-02-28T09:28:37;85120.27;;;24.20;26.54
55486;BME280;49383;-25.924;28.194;2023-02-28T09:31:02;85111.27;;;23.80;25.93
55486;BME280;49383;-25.924;28.194;2023-02-28T09:33:27;85107.54;;;23.80;26.26
55486;BME280;49383;-25.924;28.194;2023-02-28T09:35:59;85109.97;;;24.14;27.11
55486;BME280;49383;-25.924;28.194;2023-02-28T09:38:17;85110.77;;;23.93;27.27
55486;BME280;49383;-25.924;28.194;2023-02-28T09:40:49;85107.00;;;24.07;27.70
55486;BME280;49383;-25.924;28.194;2023-02-28T09:43:13;85096.69;;;23.78;27.90
55486;BME280;49383;-25.924;28.194;2023-02-28T09:45:36;85092.97;;;23.88;27.84
55486;BME280;49383;-25.924;28.194;2023-02-28T09:48:01;85089.36;;;23.82;27.79
55486;BME280;49383;-25.924;28.194;2023-02-28T09:50:29;85088.66;;;23.87;27.83
55486;BME280;49383;-25.924;28.194;2023-02-28T09:52:49;85084.51;;;23.93;27.75
55486;BME280;49383;-25.924;28.194;2023-02-28T09:55:22;85081.69;;;23.91;28.05
55486;BME280;49383;-25.924;28.194;2023-02-28T09:57:41;85078.07;;;23.68;27.90
55486;BME280;49383;-25.924;28.194;2023-02-28T10:00:12;85072.30;;;23.83;28.14
55486;BME280;49383;-25.924;28.194;2023-02-28T10:04:56;85071.99;;;23.78;28.46
55486;BME280;49383;-25.924;28.194;2023-02-28T10:07:25;85073.56;;;23.63;28.90
55486;BME280;49383;-25.924;28.194;2023-02-28T10:09:46;85073.05;;;23.92;29.33
55486;BME280;49383;-25.924;28.194;2023-02-28T10:12:10;85078.06;;;23.93;29.83
55486;BME280;49383;-25.924;28.194;2023-02-28T10:14:34;85070.98;;;23.88;29.86
55486;BME280;49383;-25.924;28.194;2023-02-28T10:17:03;85053.87;;;23.71;29.26
55486;BME280;49383;-25.924;28.194;2023-02-28T10:19:28;85052.03;;;23.98;29.66
55486;BME280;49383;-25.924;28.194;2023-02-28T10:21:55;85053.20;;;23.74;29.92
55486;BME280;49383;-25.924;28.194;2023-02-28T10:24:21;85052.76;;;23.88;30.00
55486;BME280;49383;-25.924;28.194;2023-02-28T10:26:39;85052.68;;;23.82;30.23
55486;BME280;49383;-25.924;28.194;2023-02-28T10:29:04;85051.97;;;23.62;30.11
55486;BME280;49383;-25.924;28.194;2023-02-28T10:31:29;85050.86;;;23.28;30.22
55486;BME280;49383;-25.924;28.194;2023-02-28T10:33:54;85049.09;;;23.53;30.68
55486;BME280;49383;-25.924;28.194;2023-02-28T10:36:20;85045.57;;;23.72;30.77
55486;BME280;49383;-25.924;28.194;2023-02-28T10:38:45;85040.83;;;23.69;30.72
55486;BME280;49383;-25.924;28.194;2023-02-28T10:41:11;85036.12;;;23.57;31.05
55486;BME280;49383;-25.924;28.194;2023-02-28T10:43:34;85037.48;;;23.61;31.58
55486;BME280;49383;-25.924;28.194;2023-02-28T10:46:02;85044.37;;;23.37;32.08
55486;BME280;49383;-25.924;28.194;2023-02-28T10:48:30;85040.05;;;23.56;32.35
55486;BME280;49383;-25.924;28.194;2023-02-28T10:50:52;85033.84;;;23.47;32.36
55486;BME280;49383;-25.924;28.194;2023-02-28T10:55:39;85024.93;;;23.48;32.22
55486;BME280;49383;-25.924;28.194;2023-02-28T11:00:34;85022.29;;;23.22;32.29
55486;BME280;49383;-25.924;28.194;2023-02-28T11:02:54;85014.87;;;23.56;32.32
55486;BME280;49383;-25.924;28.194;2023-02-28T11:05:25;85015.55;;;23.56;32.50
55486;BME280;49383;-25.924;28.194;2023-02-28T11:07:51;85014.90;;;23.57;32.56
55486;BME280;49383;-25.924;28.194;2023-02-28T11:10:18;85010.27;;;23.44;32.80
55486;BME280;49383;-25.924;28.194;2023-02-28T11:12:38;85014.12;;;23.35;32.99
55486;BME280;49383;-25.924;28.194;2023-02-28T11:15:02;85008.20;;;23.35;33.26
55486;BME280;49383;-25.924;28.194;2023-02-28T11:17:27;85004.48;;;23.07;33.36
55486;BME280;49383;-25.924;28.194;2023-02-28T11:19:53;85002.86;;;23.63;33.29
55486;BME280;49383;-25.924;28.194;2023-02-28T11:22:19;85005.28;;;23.22;33.22
55486;BME280;49383;-25.924;28.194;2023-02-28T11:24:44;85001.39;;;23.19;33.34
55486;BME280;49383;-25.924;28.194;2023-02-28T11:27:04;84989.86;;;23.57;33.22
55486;BME280;49383;-25.924;28.194;2023-02-28T11:29:31;84985.98;;;23.57;33.24
55486;BME280;49383;-25.924;28.194;2023-02-28T11:32:04;84980.27;;;23.43;33.36
55486;BME280;49383;-25.924;28.194;2023-02-28T11:34:24;84974.95;;;23.07;33.24
55486;BME280;49383;-25.924;28.194;2023-02-28T11:36:44;84971.58;;;23.62;33.12
55486;BME280;49383;-25.924;28.194;2023-02-28T11:39:12;84967.74;;;23.67;33.02
55486;BME280;49383;-25.924;28.194;2023-02-28T11:41:48;84964.77;;;23.39;33.12
55486;BME280;49383;-25.924;28.194;2023-02-28T11:44:10;84964.09;;;23.16;33.06
55486;BME280;49383;-25.924;28.194;2023-02-28T11:46:31;84961.27;;;23.26;33.27
55486;BME280;49383;-25.924;28.194;2023-02-28T11:48:57;84958.66;;;23.50;33.30
55486;BME280;49383;-25.924;28.194;2023-02-28T11:51:20;84951.41;;;23.49;33.30
55486;BME280;49383;-25.924;28.194;2023-02-28T11:53:50;84949.68;;;23.15;33.19
55486;BME280;49383;-25.924;28.194;2023-02-28T11:56:10;84945.28;;;23.52;33.05
55486;BME280;49383;-25.924;28.194;2023-02-28T11:58:39;84941.78;;;23.44;33.16
55486;BME280;49383;-25.924;28.194;2023-02-28T12:01:05;84943.60;;;23.29;33.08
55486;BME280;49383;-25.924;28.194;2023-02-28T12:03:28;84939.23;;;23.47;33.18
55486;BME280;49383;-25.924;28.194;2023-02-28T12:05:47;84935.52;;;23.11;33.31
55486;BME280;49383;-25.924;28.194;2023-02-28T12:08:21;84941.87;;;23.61;33.37
55486;BME280;49383;-25.924;28.194;2023-02-28T12:10:41;84936.46;;;23.37;33.36
55486;BME280;49383;-25.924;28.194;2023-02-28T12:13:10;84935.17;;;23.59;33.34
55486;BME280;49383;-25.924;28.194;2023-02-28T12:15:33;84928.58;;;23.72;33.20
55486;BME280;49383;-25.924;28.194;2023-02-28T12:18:01;84923.91;;;23.43;33.31
55486;BME280;49383;-25.924;28.194;2023-02-28T12:20:24;84914.98;;;23.45;33.29
55486;BME280;49383;-25.924;28.194;2023-02-28T12:22:46;84917.02;;;23.44;33.30
55486;BME280;49383;-25.924;28.194;2023-02-28T12:27:33;84911.33;;;23.38;33.40
55486;BME280;49383;-25.924;28.194;2023-02-28T12:29:59;84905.20;;;23.16;33.42
55486;BME280;49383;-25.924;28.194;2023-02-28T12:32:23;84899.76;;;23.39;33.56
55486;BME280;49383;-25.924;28.194;2023-02-28T12:34:47;84893.37;;;23.73;33.47
55486;BME280;49383;-25.924;28.194;2023-02-28T12:37:19;84893.29;;;23.41;33.65
55486;BME280;49383;-25.924;28.194;2023-02-28T12:39:38;84890.91;;;23.44;33.72
55486;BME280;49383;-25.924;28.194;2023-02-28T12:42:03;84890.10;;;23.42;33.78
55486;BME280;49383;-25.924;28.194;2023-02-28T12:44:30;84886.68;;;23.42;33.82
55486;BME280;49383;-25.924;28.194;2023-02-28T12:46:53;84882.41;;;23.21;33.81
55486;BME280;49383;-25.924;28.194;2023-02-28T12:49:17;84882.55;;;23.43;33.91
55486;BME280;49383;-25.924;28.194;2023-02-28T12:51:41;84877.37;;;23.61;33.98
55486;BME280;49383;-25.924;28.194;2023-02-28T12:54:14;84873.64;;;23.47;34.21
55486;BME280;49383;-25.924;28.194;2023-02-28T12:56:37;84867.61;;;23.31;34.21
55486;BME280;49383;-25.924;28.194;2023-02-28T12:58:58;84863.82;;;23.53;34.24